sensor_id;sensor_type;location;lat;lon;timestamp;temperature;humidity
30520;DHT22;17300;50.374;8.006;2023-05-14T00:01:08;14.10;53.40
30520;DHT22;17300;50.374;8.006;2023-05-14T00:03:36;14.10;53.50
30520;DHT22;17300;50.374;8.006;2023-05-14T00:06:05;14.10;53.80
30520;DHT22;17300;50.374;8.006;2023-05-14T00:08:32;14.10;53.80
30520;DHT22;17300;50.374;8.006;2023-05-14T00:10:59;14.10;54.00
30520;DHT22;17300;50.374;8.006;2023-05-14T00:13:25;14.00;54.00
30520;DHT22;17300;50.374;8.006;2023-05-14T00:15:52;14.10;54.20
30520;DHT22;17300;50.374;8.006;2023-05-14T00:18:19;14.10;54.40
30520;DHT22;17300;50.374;8.006;2023-05-14T00:20:47;14.10;54.40
30520;DHT22;17300;50.374;8.006;2023-05-14T00:23:15;14.10;54.50
30520;DHT22;17300;50.374;8.006;2023-05-14T00:25:42;14.20;54.50
30520;DHT22;17300;50.374;8.006;2023-05-14T00:28:09;14.20;54.60
30520;DHT22;17300;50.374;8.006;2023-05-14T00:30:35;14.20;54.60
30520;DHT22;17300;50.374;8.006;2023-05-14T00:33:02;14.30;54.70
30520;DHT22;17300;50.374;8.006;2023-05-14T00:35:29;14.30;54.60
30520;DHT22;17300;50.374;8.006;2023-05-14T00:37:57;14.40;54.60
30520;DHT22;17300;50.374;8.006;2023-05-14T00:40:25;14.40;54.60
30520;DHT22;17300;50.374;8.006;2023-05-14T00:42:52;14.40;54.70
30520;DHT22;17300;50.374;8.006;2023-05-14T00:45:19;14.50;54.60
30520;DHT22;17300;50.374;8.006;2023-05-14T00:47:46;14.50;54.60
30520;DHT22;17300;50.374;8.006;2023-05-14T00:50:14;14.50;54.60
30520;DHT22;17300;50.374;8.006;2023-05-14T00:52:41;14.50;54.50
30520;DHT22;17300;50.374;8.006;2023-05-14T00:55:12;14.60;54.50
30520;DHT22;17300;50.374;8.006;2023-05-14T00:57:41;14.60;54.70
30520;DHT22;17300;50.374;8.006;2023-05-14T01:00:08;14.60;54.50
30520;DHT22;17300;50.374;8.006;2023-05-14T01:02:35;14.60;54.60
30520;DHT22;17300;50.374;8.006;2023-05-14T01:05:02;14.60;54.50
30520;DHT22;17300;50.374;8.006;2023-05-14T01:07:32;14.60;54.40
30520;DHT22;17300;50.374;8.006;2023-05-14T01:10:05;14.60;54.50
30520;DHT22;17300;50.374;8.006;2023-05-14T01:12:42;14.60;54.40
30520;DHT22;17300;50.374;8.006;2023-05-14T01:15:13;14.60;54.60
30520;DHT22;17300;50.374;8.006;2023-05-14T01:17:43;14.60;54.40
30520;DHT22;17300;50.374;8.006;2023-05-14T01:20:11;14.60;54.50
30520;DHT22;17300;50.374;8.006;2023-05-14T01:22:39;14.60;54.50
30520;DHT22;17300;50.374;8.006;2023-05-14T01:25:07;14.60;54.60
30520;DHT22;17300;50.374;8.006;2023-05-14T01:27:37;14.60;54.70
30520;DHT22;17300;50.374;8.006;2023-05-14T01:30:11;14.60;54.80
30520;DHT22;17300;50.374;8.006;2023-05-14T01:32:39;14.70;55.00
30520;DHT22;17300;50.374;8.006;2023-05-14T01:35:07;14.70;54.70
30520;DHT22;17300;50.374;8.006;2023-05-14T01:37:35;14.70;54.60
30520;DHT22;17300;50.374;8.006;2023-05-14T01:40:05;14.70;54.60
30520;DHT22;17300;50.374;8.006;2023-05-14T01:42:33;14.70;54.80
30520;DHT22;17300;50.374;8.006;2023-05-14T01:45:00;14.70;55.20
30520;DHT22;17300;50.374;8.006;2023-05-14T01:47:27;14.70;54.60
30520;DHT22;17300;50.374;8.006;2023-05-14T01:49:54;14.70;54.60
30520;DHT22;17300;50.374;8.006;2023-05-14T01:52:21;14.60;54.50
30520;DHT22;17300;50.374;8.006;2023-05-14T01:54:47;14.60;54.50
30520;DHT22;17300;50.374;8.006;2023-05-14T01:57:15;14.60;54.50
30520;DHT22;17300;50.374;8.006;2023-05-14T01:59:42;14.60;54.50
30520;DHT22;17300;50.374;8.006;2023-05-14T02:02:09;14.60;54.50
30520;DHT22;17300;50.374;8.006;2023-05-14T02:04:35;14.60;54.60
30520;DHT22;17300;50.374;8.006;2023-05-14T02:07:02;14.70;54.70
30520;DHT22;17300;50.374;8.006;2023-05-14T02:09:29;14.60;54.60
30520;DHT22;17300;50.374;8.006;2023-05-14T02:11:55;14.60;54.60
30520;DHT22;17300;50.374;8.006;2023-05-14T02:14:23;14.60;54.70
30520;DHT22;17300;50.374;8.006;2023-05-14T02:16:50;14.60;54.90
30520;DHT22;17300;50.374;8.006;2023-05-14T02:19:17;14.60;54.90
30520;DHT22;17300;50.374;8.006;2023-05-14T02:21:43;14.60;54.90
30520;DHT22;17300;50.374;8.006;2023-05-14T02:24:10;14.60;55.00
30520;DHT22;17300;50.374;8.006;2023-05-14T02:26:36;14.60;54.90
30520;DHT22;17300;50.374;8.006;2023-05-14T02:29:03;14.60;54.90
30520;DHT22;17300;50.374;8.006;2023-05-14T02:31:31;14.60;54.90
30520;DHT22;17300;50.374;8.006;2023-05-14T02:33:59;14.60;54.90
30520;DHT22;17300;50.374;8.006;2023-05-14T02:36:26;14.60;55.00
30520;DHT22;17300;50.374;8.006;2023-05-14T02:38:53;14.60;55.00
30520;DHT22;17300;50.374;8.006;2023-05-14T02:41:19;14.60;55.00
30520;DHT22;17300;50.374;8.006;2023-05-14T02:43:46;14.70;55.10
30520;DHT22;17300;50.374;8.006;2023-05-14T02:46:13;14.70;55.10
30520;DHT22;17300;50.374;8.006;2023-05-14T02:48:41;14.70;55.10
30520;DHT22;17300;50.374;8.006;2023-05-14T02:51:08;14.70;55.10
30520;DHT22;17300;50.374;8.006;2023-05-14T02:53:34;14.70;55.00
30520;DHT22;17300;50.374;8.006;2023-05-14T02:56:01;14.70;55.00
30520;DHT22;17300;50.374;8.006;2023-05-14T02:58:28;14.70;55.00
30520;DHT22;17300;50.374;8.006;2023-05-14T03:00:54;14.70;55.00
30520;DHT22;17300;50.374;8.006;2023-05-14T03:03:21;14.70;55.00
30520;DHT22;17300;50.374;8.006;2023-05-14T03:05:49;14.70;55.00
30520;DHT22;17300;50.374;8.006;2023-05-14T03:08:16;14.70;55.10
30520;DHT22;17300;50.374;8.006;2023-05-14T03:10:43;14.70;55.10
30520;DHT22;17300;50.374;8.006;2023-05-14T03:13:10;14.70;55.10
30520;DHT22;17300;50.374;8.006;2023-05-14T03:15:37;14.70;55.10
30520;DHT22;17300;50.374;8.006;2023-05-14T03:18:03;14.70;55.10
30520;DHT22;17300;50.374;8.006;2023-05-14T03:20:31;14.60;54.90
30520;DHT22;17300;50.374;8.006;2023-05-14T03:22:59;14.60;54.90
30520;DHT22;17300;50.374;8.006;2023-05-14T03:25:26;14.60;55.10
30520;DHT22;17300;50.374;8.006;2023-05-14T03:27:52;14.60;55.10
30520;DHT22;17300;50.374;8.006;2023-05-14T03:30:19;14.60;55.20
30520;DHT22;17300;50.374;8.006;2023-05-14T03:32:45;14.50;55.20
30520;DHT22;17300;50.374;8.006;2023-05-14T03:35:12;14.50;55.20
30520;DHT22;17300;50.374;8.006;2023-05-14T03:37:39;14.50;55.20
30520;DHT22;17300;50.374;8.006;2023-05-14T03:40:08;14.50;55.20
30520;DHT22;17300;50.374;8.006;2023-05-14T03:42:35;14.50;55.40
30520;DHT22;17300;50.374;8.006;2023-05-14T03:45:01;14.50;55.30
30520;DHT22;17300;50.374;8.006;2023-05-14T03:47:28;14.50;55.30
30520;DHT22;17300;50.374;8.006;2023-05-14T03:49:55;14.40;55.30
30520;DHT22;17300;50.374;8.006;2023-05-14T03:52:22;14.40;56.00
30520;DHT22;17300;50.374;8.006;2023-05-14T03:54:49;14.50;55.50
30520;DHT22;17300;50.374;8.006;2023-05-14T03:57:16;14.40;55.40
30520;DHT22;17300;50.374;8.006;2023-05-14T03:59:43;14.40;55.40
30520;DHT22;17300;50.374;8.006;2023-05-14T04:02:10;14.40;55.30
30520;DHT22;17300;50.374;8.006;2023-05-14T04:04:36;14.40;55.30
30520;DHT22;17300;50.374;8.006;2023-05-14T04:07:03;14.40;55.30
30520;DHT22;17300;50.374;8.006;2023-05-14T04:09:30;14.40;55.40
30520;DHT22;17300;50.374;8.006;2023-05-14T04:11:56;14.40;55.50
30520;DHT22;17300;50.374;8.006;2023-05-14T04:14:24;14.40;55.60
30520;DHT22;17300;50.374;8.006;2023-05-14T04:16:51;14.40;55.70
30520;DHT22;17300;50.374;8.006;2023-05-14T04:19:18;14.40;55.60
30520;DHT22;17300;50.374;8.006;2023-05-14T04:21:44;14.50;55.70
30520;DHT22;17300;50.374;8.006;2023-05-14T04:24:11;14.50;55.60
30520;DHT22;17300;50.374;8.006;2023-05-14T04:26:38;14.50;55.50
30520;DHT22;17300;50.374;8.006;2023-05-14T04:29:04;14.50;55.50
30520;DHT22;17300;50.374;8.006;2023-05-14T04:31:32;14.40;55.30
30520;DHT22;17300;50.374;8.006;2023-05-14T04:33:59;14.40;55.40
30520;DHT22;17300;50.374;8.006;2023-05-14T04:36:25;14.40;55.40
30520;DHT22;17300;50.374;8.006;2023-05-14T04:38:52;14.40;55.50
30520;DHT22;17300;50.374;8.006;2023-05-14T04:41:19;14.40;55.50
30520;DHT22;17300;50.374;8.006;2023-05-14T04:43:48;14.40;55.40
30520;DHT22;17300;50.374;8.006;2023-05-14T04:46:15;14.40;55.40
30520;DHT22;17300;50.374;8.006;2023-05-14T04:48:43;14.30;55.30
30520;DHT22;17300;50.374;8.006;2023-05-14T04:51:09;14.30;55.30
30520;DHT22;17300;50.374;8.006;2023-05-14T04:53:36;14.30;55.30
30520;DHT22;17300;50.374;8.006;2023-05-14T04:56:03;14.30;55.40
30520;DHT22;17300;50.374;8.006;2023-05-14T04:58:29;14.20;55.40
30520;DHT22;17300;50.374;8.006;2023-05-14T05:00:57;14.20;55.50
30520;DHT22;17300;50.374;8.006;2023-05-14T05:03:23;14.20;55.50
30520;DHT22;17300;50.374;8.006;2023-05-14T05:05:51;14.20;55.50
30520;DHT22;17300;50.374;8.006;2023-05-14T05:08:18;14.20;55.50
30520;DHT22;17300;50.374;8.006;2023-05-14T05:10:45;14.30;55.60
30520;DHT22;17300;50.374;8.006;2023-05-14T05:13:11;14.30;55.70
30520;DHT22;17300;50.374;8.006;2023-05-14T05:15:39;14.20;55.70
30520;DHT22;17300;50.374;8.006;2023-05-14T05:18:06;14.20;55.70
30520;DHT22;17300;50.374;8.006;2023-05-14T05:20:33;14.30;55.80
30520;DHT22;17300;50.374;8.006;2023-05-14T05:23:01;14.30;55.90
30520;DHT22;17300;50.374;8.006;2023-05-14T05:25:27;14.30;56.10
30520;DHT22;17300;50.374;8.006;2023-05-14T05:27:54;14.30;56.00
30520;DHT22;17300;50.374;8.006;2023-05-14T05:30:26;14.30;56.10
30520;DHT22;17300;50.374;8.006;2023-05-14T05:32:54;14.40;56.30
30520;DHT22;17300;50.374;8.006;2023-05-14T05:35:21;14.40;56.20
30520;DHT22;17300;50.374;8.006;2023-05-14T05:37:48;14.40;56.20
30520;DHT22;17300;50.374;8.006;2023-05-14T05:40:17;14.50;56.30
30520;DHT22;17300;50.374;8.006;2023-05-14T05:42:43;14.50;56.40
30520;DHT22;17300;50.374;8.006;2023-05-14T05:45:13;14.60;56.50
30520;DHT22;17300;50.374;8.006;2023-05-14T05:47:40;14.60;56.50
30520;DHT22;17300;50.374;8.006;2023-05-14T05:50:07;14.60;56.50
30520;DHT22;17300;50.374;8.006;2023-05-14T05:52:34;14.70;56.50
30520;DHT22;17300;50.374;8.006;2023-05-14T05:55:01;14.70;56.50
30520;DHT22;17300;50.374;8.006;2023-05-14T05:57:29;14.80;56.50
30520;DHT22;17300;50.374;8.006;2023-05-14T05:59:56;14.80;56.50
30520;DHT22;17300;50.374;8.006;2023-05-14T06:02:22;14.90;56.40
30520;DHT22;17300;50.374;8.006;2023-05-14T06:04:49;15.00;56.50
30520;DHT22;17300;50.374;8.006;2023-05-14T06:07:22;15.00;56.50
30520;DHT22;17300;50.374;8.006;2023-05-14T06:09:49;15.00;56.50
30520;DHT22;17300;50.374;8.006;2023-05-14T06:12:16;15.10;56.40
30520;DHT22;17300;50.374;8.006;2023-05-14T06:14:44;15.10;56.30
30520;DHT22;17300;50.374;8.006;2023-05-14T06:17:10;15.20;56.40
30520;DHT22;17300;50.374;8.006;2023-05-14T06:19:37;15.30;56.40
30520;DHT22;17300;50.374;8.006;2023-05-14T06:22:04;15.30;56.40
30520;DHT22;17300;50.374;8.006;2023-05-14T06:24:30;15.40;56.50
30520;DHT22;17300;50.374;8.006;2023-05-14T06:26:57;15.40;56.70
30520;DHT22;17300;50.374;8.006;2023-05-14T06:29:24;15.50;56.80
30520;DHT22;17300;50.374;8.006;2023-05-14T06:34:17;15.80;56.30
30520;DHT22;17300;50.374;8.006;2023-05-14T06:36:44;15.80;56.70
30520;DHT22;17300;50.374;8.006;2023-05-14T06:39:11;15.90;56.60
30520;DHT22;17300;50.374;8.006;2023-05-14T06:41:37;16.00;56.60
30520;DHT22;17300;50.374;8.006;2023-05-14T06:44:07;16.10;56.60
30520;DHT22;17300;50.374;8.006;2023-05-14T06:46:33;16.20;56.60
30520;DHT22;17300;50.374;8.006;2023-05-14T06:49:00;16.30;56.50
30520;DHT22;17300;50.374;8.006;2023-05-14T06:51:28;16.40;56.40
30520;DHT22;17300;50.374;8.006;2023-05-14T06:53:55;16.50;56.30
30520;DHT22;17300;50.374;8.006;2023-05-14T06:56:21;16.60;56.20
30520;DHT22;17300;50.374;8.006;2023-05-14T06:58:48;16.70;56.20
30520;DHT22;17300;50.374;8.006;2023-05-14T07:01:15;16.80;56.30
30520;DHT22;17300;50.374;8.006;2023-05-14T07:03:42;17.00;56.60
30520;DHT22;17300;50.374;8.006;2023-05-14T07:06:08;17.00;56.60
30520;DHT22;17300;50.374;8.006;2023-05-14T07:08:36;17.20;56.50
30520;DHT22;17300;50.374;8.006;2023-05-14T07:11:03;17.30;56.30
30520;DHT22;17300;50.374;8.006;2023-05-14T07:13:30;17.40;56.30
30520;DHT22;17300;50.374;8.006;2023-05-14T07:15:56;17.50;56.40
30520;DHT22;17300;50.374;8.006;2023-05-14T07:18:23;17.60;56.60
30520;DHT22;17300;50.374;8.006;2023-05-14T07:20:50;17.80;56.80
30520;DHT22;17300;50.374;8.006;2023-05-14T07:23:16;18.00;57.30
30520;DHT22;17300;50.374;8.006;2023-05-14T07:25:45;18.20;57.40
30520;DHT22;17300;50.374;8.006;2023-05-14T07:28:11;18.40;57.50
30520;DHT22;17300;50.374;8.006;2023-05-14T07:30:38;18.70;57.50
30520;DHT22;17300;50.374;8.006;2023-05-14T07:33:05;19.10;58.30
30520;DHT22;17300;50.374;8.006;2023-05-14T07:35:31;19.50;58.90
30520;DHT22;17300;50.374;8.006;2023-05-14T07:37:58;20.00;58.90
30520;DHT22;17300;50.374;8.006;2023-05-14T07:40:25;20.50;58.50
30520;DHT22;17300;50.374;8.006;2023-05-14T07:42:53;21.00;58.20
30520;DHT22;17300;50.374;8.006;2023-05-14T07:45:19;21.50;59.00
30520;DHT22;17300;50.374;8.006;2023-05-14T07:47:46;22.20;61.20
30520;DHT22;17300;50.374;8.006;2023-05-14T07:50:16;23.10;62.60
30520;DHT22;17300;50.374;8.006;2023-05-14T07:52:42;23.90;61.10
30520;DHT22;17300;50.374;8.006;2023-05-14T07:55:09;24.80;59.90
30520;DHT22;17300;50.374;8.006;2023-05-14T07:57:36;25.70;58.10
30520;DHT22;17300;50.374;8.006;2023-05-14T08:00:05;26.30;56.10
30520;DHT22;17300;50.374;8.006;2023-05-14T08:02:33;26.90;53.90
30520;DHT22;17300;50.374;8.006;2023-05-14T08:05:00;27.20;52.50
30520;DHT22;17300;50.374;8.006;2023-05-14T08:07:26;27.50;51.10
30520;DHT22;17300;50.374;8.006;2023-05-14T08:09:54;27.70;50.10
30520;DHT22;17300;50.374;8.006;2023-05-14T08:12:21;27.90;50.40
30520;DHT22;17300;50.374;8.006;2023-05-14T08:14:47;28.30;51.50
30520;DHT22;17300;50.374;8.006;2023-05-14T08:17:15;28.70;52.20
30520;DHT22;17300;50.374;8.006;2023-05-14T08:19:42;29.40;52.60
30520;DHT22;17300;50.374;8.006;2023-05-14T08:22:09;30.30;53.70
30520;DHT22;17300;50.374;8.006;2023-05-14T08:24:35;31.30;53.60
30520;DHT22;17300;50.374;8.006;2023-05-14T08:27:02;32.50;52.50
30520;DHT22;17300;50.374;8.006;2023-05-14T08:29:29;33.60;51.20
30520;DHT22;17300;50.374;8.006;2023-05-14T08:31:56;34.70;49.80
30520;DHT22;17300;50.374;8.006;2023-05-14T08:34:24;35.80;47.70
30520;DHT22;17300;50.374;8.006;2023-05-14T08:36:50;36.90;45.90
30520;DHT22;17300;50.374;8.006;2023-05-14T08:39:17;37.80;44.50
30520;DHT22;17300;50.374;8.006;2023-05-14T08:41:44;38.70;42.50
30520;DHT22;17300;50.374;8.006;2023-05-14T08:44:12;39.50;40.80
30520;DHT22;17300;50.374;8.006;2023-05-14T08:46:39;40.30;38.70
30520;DHT22;17300;50.374;8.006;2023-05-14T08:49:13;40.90;37.30
30520;DHT22;17300;50.374;8.006;2023-05-14T08:51:42;41.60;35.40
30520;DHT22;17300;50.374;8.006;2023-05-14T08:54:09;42.30;35.20
30520;DHT22;17300;50.374;8.006;2023-05-14T08:56:39;42.90;33.90
30520;DHT22;17300;50.374;8.006;2023-05-14T08:59:07;43.40;32.70
30520;DHT22;17300;50.374;8.006;2023-05-14T09:01:33;44.00;32.20
30520;DHT22;17300;50.374;8.006;2023-05-14T09:04:01;44.50;31.50
30520;DHT22;17300;50.374;8.006;2023-05-14T09:36:25;46.00;25.30
30520;DHT22;17300;50.374;8.006;2023-05-14T09:39:11;46.20;25.90
30520;DHT22;17300;50.374;8.006;2023-05-14T09:41:44;46.30;25.20
30520;DHT22;17300;50.374;8.006;2023-05-14T09:44:10;46.40;25.50
30520;DHT22;17300;50.374;8.006;2023-05-14T09:46:37;46.70;25.20
30520;DHT22;17300;50.374;8.006;2023-05-14T09:49:04;46.90;25.00
30520;DHT22;17300;50.374;8.006;2023-05-14T09:51:32;47.20;24.60
30520;DHT22;17300;50.374;8.006;2023-05-14T09:53:59;47.30;24.20
30520;DHT22;17300;50.374;8.006;2023-05-14T09:56:26;47.30;24.20
30520;DHT22;17300;50.374;8.006;2023-05-14T09:58:53;47.20;23.50
30520;DHT22;17300;50.374;8.006;2023-05-14T10:01:20;46.90;23.40
30520;DHT22;17300;50.374;8.006;2023-05-14T10:03:48;46.60;23.00
30520;DHT22;17300;50.374;8.006;2023-05-14T10:06:15;46.20;23.40
30520;DHT22;17300;50.374;8.006;2023-05-14T10:08:47;45.90;23.30
30520;DHT22;17300;50.374;8.006;2023-05-14T10:11:23;45.50;22.70
30520;DHT22;17300;50.374;8.006;2023-05-14T10:13:54;45.00;22.80
30520;DHT22;17300;50.374;8.006;2023-05-14T10:16:25;44.70;23.20
30520;DHT22;17300;50.374;8.006;2023-05-14T10:18:57;44.50;23.10
30520;DHT22;17300;50.374;8.006;2023-05-14T10:21:28;44.30;23.40
30520;DHT22;17300;50.374;8.006;2023-05-14T10:23:57;44.20;23.40
30520;DHT22;17300;50.374;8.006;2023-05-14T10:26:24;44.30;23.60
30520;DHT22;17300;50.374;8.006;2023-05-14T10:28:52;44.40;23.80
30520;DHT22;17300;50.374;8.006;2023-05-14T10:31:22;44.60;23.40
30520;DHT22;17300;50.374;8.006;2023-05-14T10:33:49;44.90;23.90
30520;DHT22;17300;50.374;8.006;2023-05-14T10:36:17;45.20;23.70
30520;DHT22;17300;50.374;8.006;2023-05-14T10:38:43;45.40;23.10
30520;DHT22;17300;50.374;8.006;2023-05-14T10:41:13;45.30;22.60
30520;DHT22;17300;50.374;8.006;2023-05-14T10:43:42;45.10;21.80
30520;DHT22;17300;50.374;8.006;2023-05-14T10:46:11;44.60;21.50
30520;DHT22;17300;50.374;8.006;2023-05-14T10:48:40;44.10;21.20
30520;DHT22;17300;50.374;8.006;2023-05-14T10:51:08;43.50;21.10
30520;DHT22;17300;50.374;8.006;2023-05-14T10:53:36;42.70;20.70
30520;DHT22;17300;50.374;8.006;2023-05-14T10:56:05;41.70;20.40
30520;DHT22;17300;50.374;8.006;2023-05-14T10:58:35;40.60;20.40
30520;DHT22;17300;50.374;8.006;2023-05-14T11:01:04;39.40;21.00
30520;DHT22;17300;50.374;8.006;2023-05-14T11:03:32;38.30;22.20
30520;DHT22;17300;50.374;8.006;2023-05-14T11:06:05;37.40;23.10
30520;DHT22;17300;50.374;8.006;2023-05-14T11:08:32;36.80;23.60
30520;DHT22;17300;50.374;8.006;2023-05-14T11:10:59;36.30;24.60
30520;DHT22;17300;50.374;8.006;2023-05-14T11:13:26;36.10;25.50
30520;DHT22;17300;50.374;8.006;2023-05-14T11:15:54;36.00;25.90
30520;DHT22;17300;50.374;8.006;2023-05-14T11:18:25;35.90;25.90
30520;DHT22;17300;50.374;8.006;2023-05-14T11:20:53;35.90;25.80
30520;DHT22;17300;50.374;8.006;2023-05-14T11:23:22;35.90;26.30
30520;DHT22;17300;50.374;8.006;2023-05-14T11:25:50;35.80;25.80
30520;DHT22;17300;50.374;8.006;2023-05-14T11:28:17;35.70;25.60
30520;DHT22;17300;50.374;8.006;2023-05-14T11:30:44;35.70;25.40
30520;DHT22;17300;50.374;8.006;2023-05-14T11:33:12;35.50;25.10
30520;DHT22;17300;50.374;8.006;2023-05-14T11:35:39;35.20;25.30
30520;DHT22;17300;50.374;8.006;2023-05-14T11:38:13;34.90;25.30
30520;DHT22;17300;50.374;8.006;2023-05-14T11:40:40;34.40;25.20
30520;DHT22;17300;50.374;8.006;2023-05-14T11:43:06;33.90;25.70
30520;DHT22;17300;50.374;8.006;2023-05-14T11:45:34;33.40;25.40
30520;DHT22;17300;50.374;8.006;2023-05-14T11:48:01;33.00;25.90
30520;DHT22;17300;50.374;8.006;2023-05-14T11:50:29;32.50;26.10
30520;DHT22;17300;50.374;8.006;2023-05-14T11:52:56;32.10;26.20
30520;DHT22;17300;50.374;8.006;2023-05-14T11:55:23;31.60;26.20
30520;DHT22;17300;50.374;8.006;2023-05-14T11:57:50;31.30;26.30
30520;DHT22;17300;50.374;8.006;2023-05-14T12:00:18;30.80;26.70
30520;DHT22;17300;50.374;8.006;2023-05-14T12:02:47;30.50;27.10
30520;DHT22;17300;50.374;8.006;2023-05-14T12:05:14;30.20;28.10
30520;DHT22;17300;50.374;8.006;2023-05-14T12:07:44;30.00;28.10
30520;DHT22;17300;50.374;8.006;2023-05-14T12:10:11;29.80;29.00
30520;DHT22;17300;50.374;8.006;2023-05-14T12:12:38;29.70;29.10
30520;DHT22;17300;50.374;8.006;2023-05-14T12:15:10;29.60;28.80
30520;DHT22;17300;50.374;8.006;2023-05-14T12:17:38;29.40;29.80
30520;DHT22;17300;50.374;8.006;2023-05-14T12:20:07;29.40;30.00
30520;DHT22;17300;50.374;8.006;2023-05-14T12:22:35;29.30;29.20
30520;DHT22;17300;50.374;8.006;2023-05-14T12:25:08;29.20;29.50
30520;DHT22;17300;50.374;8.006;2023-05-14T12:27:36;29.10;29.90
30520;DHT22;17300;50.374;8.006;2023-05-14T12:30:05;28.90;29.80
30520;DHT22;17300;50.374;8.006;2023-05-14T12:32:32;28.80;29.50
30520;DHT22;17300;50.374;8.006;2023-05-14T12:34:59;28.60;30.60
30520;DHT22;17300;50.374;8.006;2023-05-14T12:37:26;28.60;30.60
30520;DHT22;17300;50.374;8.006;2023-05-14T12:39:53;28.40;30.20
30520;DHT22;17300;50.374;8.006;2023-05-14T12:42:21;28.30;30.30
30520;DHT22;17300;50.374;8.006;2023-05-14T12:44:48;28.20;31.10
30520;DHT22;17300;50.374;8.006;2023-05-14T12:47:14;28.10;30.10
30520;DHT22;17300;50.374;8.006;2023-05-14T12:49:41;28.00;31.10
30520;DHT22;17300;50.374;8.006;2023-05-14T12:52:08;27.90;31.30
30520;DHT22;17300;50.374;8.006;2023-05-14T12:54:34;28.00;31.40
30520;DHT22;17300;50.374;8.006;2023-05-14T12:57:03;27.90;30.70
30520;DHT22;17300;50.374;8.006;2023-05-14T12:59:31;27.90;31.40
30520;DHT22;17300;50.374;8.006;2023-05-14T13:01:57;27.90;32.10
30520;DHT22;17300;50.374;8.006;2023-05-14T13:04:24;27.80;32.60
30520;DHT22;17300;50.374;8.006;2023-05-14T13:06:51;27.80;32.10
30520;DHT22;17300;50.374;8.006;2023-05-14T13:09:18;27.80;32.30
30520;DHT22;17300;50.374;8.006;2023-05-14T13:11:45;27.80;32.20
30520;DHT22;17300;50.374;8.006;2023-05-14T13:14:11;27.70;31.90
30520;DHT22;17300;50.374;8.006;2023-05-14T13:16:39;27.70;32.70
30520;DHT22;17300;50.374;8.006;2023-05-14T13:19:06;27.60;32.50
30520;DHT22;17300;50.374;8.006;2023-05-14T13:21:32;27.60;32.60
30520;DHT22;17300;50.374;8.006;2023-05-14T13:23:59;27.60;33.20
30520;DHT22;17300;50.374;8.006;2023-05-14T13:26:26;27.50;32.50
30520;DHT22;17300;50.374;8.006;2023-05-14T13:28:53;27.50;32.20
30520;DHT22;17300;50.374;8.006;2023-05-14T13:31:19;27.50;32.00
30520;DHT22;17300;50.374;8.006;2023-05-14T13:33:47;27.40;32.00
30520;DHT22;17300;50.374;8.006;2023-05-14T13:36:35;27.30;32.60
30520;DHT22;17300;50.374;8.006;2023-05-14T13:39:05;27.30;33.10
30520;DHT22;17300;50.374;8.006;2023-05-14T13:41:31;27.30;32.00
30520;DHT22;17300;50.374;8.006;2023-05-14T13:43:59;27.30;32.20
30520;DHT22;17300;50.374;8.006;2023-05-14T13:46:26;27.40;31.80
30520;DHT22;17300;50.374;8.006;2023-05-14T13:48:54;27.40;32.70
30520;DHT22;17300;50.374;8.006;2023-05-14T13:51:21;27.40;33.30
30520;DHT22;17300;50.374;8.006;2023-05-14T13:53:48;27.50;32.60
30520;DHT22;17300;50.374;8.006;2023-05-14T13:56:14;27.50;32.60
30520;DHT22;17300;50.374;8.006;2023-05-14T13:58:41;27.60;32.80
30520;DHT22;17300;50.374;8.006;2023-05-14T14:01:08;27.70;33.40
30520;DHT22;17300;50.374;8.006;2023-05-14T14:03:34;27.70;32.70
30520;DHT22;17300;50.374;8.006;2023-05-14T14:06:02;27.80;33.00
30520;DHT22;17300;50.374;8.006;2023-05-14T14:08:29;27.80;33.00
30520;DHT22;17300;50.374;8.006;2023-05-14T14:10:56;27.80;32.70
30520;DHT22;17300;50.374;8.006;2023-05-14T14:13:22;27.70;32.00
30520;DHT22;17300;50.374;8.006;2023-05-14T14:15:49;27.70;32.70
30520;DHT22;17300;50.374;8.006;2023-05-14T14:18:16;27.60;32.90
30520;DHT22;17300;50.374;8.006;2023-05-14T14:20:42;27.60;33.10
30520;DHT22;17300;50.374;8.006;2023-05-14T14:23:10;27.50;32.80
30520;DHT22;17300;50.374;8.006;2023-05-14T14:25:37;27.40;32.50
30520;DHT22;17300;50.374;8.006;2023-05-14T14:28:04;27.30;32.40
30520;DHT22;17300;50.374;8.006;2023-05-14T14:30:31;27.20;31.90
30520;DHT22;17300;50.374;8.006;2023-05-14T14:32:59;27.00;32.20
30520;DHT22;17300;50.374;8.006;2023-05-14T14:35:25;27.00;32.60
30520;DHT22;17300;50.374;8.006;2023-05-14T14:37:52;26.90;32.50
30520;DHT22;17300;50.374;8.006;2023-05-14T14:40:21;26.80;32.50
30520;DHT22;17300;50.374;8.006;2023-05-14T14:42:48;26.80;32.80
30520;DHT22;17300;50.374;8.006;2023-05-14T14:45:15;26.70;32.80
30520;DHT22;17300;50.374;8.006;2023-05-14T14:47:43;26.70;33.60
30520;DHT22;17300;50.374;8.006;2023-05-14T14:50:11;26.60;34.50
30520;DHT22;17300;50.374;8.006;2023-05-14T14:52:38;26.50;34.50
30520;DHT22;17300;50.374;8.006;2023-05-14T14:55:08;26.40;36.00
30520;DHT22;17300;50.374;8.006;2023-05-14T14:57:36;26.10;38.50
30520;DHT22;17300;50.374;8.006;2023-05-14T15:00:03;25.50;39.10
30520;DHT22;17300;50.374;8.006;2023-05-14T15:02:31;24.80;39.70
30520;DHT22;17300;50.374;8.006;2023-05-14T15:04:57;24.10;39.90
30520;DHT22;17300;50.374;8.006;2023-05-14T15:07:24;23.40;40.20
30520;DHT22;17300;50.374;8.006;2023-05-14T15:09:51;22.70;40.60
30520;DHT22;17300;50.374;8.006;2023-05-14T15:12:17;22.10;41.30
30520;DHT22;17300;50.374;8.006;2023-05-14T15:14:45;21.60;41.90
30520;DHT22;17300;50.374;8.006;2023-05-14T15:17:12;21.20;43.00
30520;DHT22;17300;50.374;8.006;2023-05-14T15:19:39;20.90;42.80
30520;DHT22;17300;50.374;8.006;2023-05-14T15:22:05;20.60;43.70
30520;DHT22;17300;50.374;8.006;2023-05-14T15:24:32;20.50;44.50
30520;DHT22;17300;50.374;8.006;2023-05-14T15:26:58;20.30;45.40
30520;DHT22;17300;50.374;8.006;2023-05-14T15:29:25;20.20;46.20
30520;DHT22;17300;50.374;8.006;2023-05-14T15:31:54;20.20;46.50
30520;DHT22;17300;50.374;8.006;2023-05-14T15:34:21;20.20;47.00
30520;DHT22;17300;50.374;8.006;2023-05-14T15:36:47;20.20;47.40
30520;DHT22;17300;50.374;8.006;2023-05-14T15:39:14;20.20;47.50
30520;DHT22;17300;50.374;8.006;2023-05-14T15:41:40;20.20;47.90
30520;DHT22;17300;50.374;8.006;2023-05-14T15:44:07;20.20;47.80
30520;DHT22;17300;50.374;8.006;2023-05-14T15:46:34;20.30;47.80
30520;DHT22;17300;50.374;8.006;2023-05-14T15:49:03;20.40;47.90
30520;DHT22;17300;50.374;8.006;2023-05-14T15:51:30;20.40;48.00
30520;DHT22;17300;50.374;8.006;2023-05-14T15:53:57;20.50;47.80
30520;DHT22;17300;50.374;8.006;2023-05-14T15:56:24;20.50;47.80
30520;DHT22;17300;50.374;8.006;2023-05-14T15:58:50;20.60;47.70
30520;DHT22;17300;50.374;8.006;2023-05-14T16:01:17;20.60;47.30
30520;DHT22;17300;50.374;8.006;2023-05-14T16:03:44;20.70;47.80